Nearby METAR Reports

 

KNFG - Camp Pendleton, California, USA
Distance from station: WNW 5mi, 8km
Updated: Mon, 18-Dec-2017 7:55am PST
Few Clouds
Few Clouds
 Wind from calm
Wind: Calm
Temperature: 43°F , 6°C
Dew Point: 21°F , -6°C
Humidity: 42%
Barometer: 30.17 inHg , 1021.7 hPa
Clouds: Few Clouds
Visibility: 10 miles , 16 km
Cloud details: Few Clouds 25000 ft
2017/12/18 15:55 KNFG 181555Z 00000KT 10SM FEW250 06/M06 A3017 RMK AO2 SLP216 T00561056
KOKB - Oceanside, California, USA
Distance from station: WSW 6mi, 10km
Updated: Sun, 17-Dec-2017 11:52pm PST
NOT Current

 Wind from NNE
Wind: NNE 5 mph , 7 km/h
Temperature: 50°F , 10°C
Wind Chill: 48°F , 9°C
Dew Point: 28°F , -2°C
Humidity: 43%
Barometer: 30.05 inHg , 1017.6 hPa
Visibility: 10 miles , 16 km
2017/12/18 07:52 KOKB 180752Z AUTO 02004KT 10SM 10/M02 A3005 RMK AO2 SLP175 T01001022 402440033 TSNO $
 
KCRQ - Carlsbad, California, USA
Distance from station: SSW 8mi, 13km
Updated: Mon, 18-Dec-2017 7:53am PST
Clear
Clear
 Wind from calm
Wind: Calm
Temperature: 55°F , 13°C
Dew Point: 27°F , -3°C
Humidity: 33%
Barometer: 30.14 inHg , 1020.7 hPa
Clouds: Clear
Visibility: 10 miles , 16 km
2017/12/18 15:53 KCRQ 181553Z AUTO 00000KT 10SM CLR 13/M03 A3014 RMK AO2 SLP207 T01281033
KNXF - Oceanside/Red-B, California, USA
Distance from station: WNW 12mi, 19km
Updated: Mon, 18-Dec-2017 7:56am PST
Clear
Clear
 Wind from NE
Wind: NE 9 mph , 15 km/h
Temperature: 57°F , 14°C
Dew Point: 19°F , -7°C
Humidity: 23%
Barometer: 30.16 inHg , 1021.3 hPa
Clouds: Clear
Visibility: 10 miles , 16 km
2017/12/18 15:56 KNXF 181556Z AUTO 05008KT 10SM CLR 14/M07 A3016 RMK AO2 SLP298 T01391067 $
 
KSNA - Costa Mesa, California, USA
Distance from station: NW 46mi, 74km
Updated: Mon, 18-Dec-2017 7:53am PST
Few Clouds
Few Clouds
 Wind from varies
Wind: varies 3 mph , 6 km/h
Temperature: 52°F , 11°C
Dew Point: 30°F , -1°C
Humidity: 44%
Barometer: 30.15 inHg , 1021 hPa
Clouds: Few Clouds
Visibility: 10 miles , 16 km
Cloud details: Few Clouds 21000 ft
2017/12/18 15:53 KSNA 181553Z VRB03KT 10SM FEW210 11/M01 A3015 RMK AO2 SLP210 T01111006
KCDC - Cedar City, Utah, USA
Distance from station: S 5mi, 8km
Updated: Mon, 18-Dec-2017 7:53am PST
Clear
Clear
 Wind from calm
Wind: Calm
Temperature: 19°F , -7°C
Dew Point: 18°F , -8°C
Humidity: 93%
Barometer: 30.25 inHg , 1024.4 hPa
Clouds: Clear
Visibility: 10 miles , 16 km
2017/12/18 15:53 KCDC 181553Z AUTO 00000KT 10SM CLR M07/M08 A3025 RMK AO2 SLP287 T10671083